College Estates, Maryland
Current Conditions -  °F | °C
As of 12:35 AM on Sunday 23 Nov 2014 (Local Time) from KFDK Reporting Station
Overcast Overcast  
Wind Chill: 37°   Ceiling: 12000
Heat Index: 37°   Visibility: 10mi
Dew Point: 19°   Wind: 0mph
Humidity: 48%   Direction: NA
Pressure: 30.24"   Gusts: NA
Location:  39.478°N, 77.4561°W
Report Text: KFDK 230535Z AUTO 00000KT 10SM OVC120 03/M07 A3024 RMK AO2
Loading
Personal Weather Stations






























Interactive Weather Map New forecast layout! Learn more

10-Day Weather Forecast

Advertisements
Track Severe Weather on mobile